Time;durP1;ratioP1;P1;durP2;ratioP2;P2;SDS_P1;SDS_P2;PMS_P1;PMS_P2;Temp;Humidity;BMP_temperature;BMP_pressure;BME280_temperature;BME280_humidity;BME280_pressure;Samples;Min_cycle;Max_cycle;Signal;HPM_P1;HPM_P2
2021/03/13 00:00:53;;;;;;;9.27;5.03;;;;;;;;;;2096238;28;20194;-57
2021/03/13 00:01:53;;;;;;;8.33;4.53;;;;;;;;;;2094757;28;20176;-55
2021/03/13 00:02:54;;;;;;;7.63;4.80;;;;;;;;;;2092973;28;20229;-58
2021/03/13 00:03:55;;;;;;;8.93;4.73;;;;;;;;;;2088109;28;20219;-58
2021/03/13 00:04:55;;;;;;;8.53;5.27;;;;;;;;;;2092301;28;20705;-55
2021/03/13 00:05:55;;;;;;;11.27;4.27;;;;;;;;;;2101697;28;20170;-57
2021/03/13 00:06:55;;;;;;;11.20;5.87;;;;;;;;;;2093740;28;20565;-57
2021/03/13 00:07:56;;;;;;;10.23;5.10;;;;;;;;;;2093770;28;20267;-57
2021/03/13 00:08:56;;;;;;;10.60;5.10;;;;;;;;;;2095152;28;20168;-55
2021/03/13 00:09:56;;;;;;;9.77;4.87;;;;;;;;;;2094481;28;20175;-57
2021/03/13 00:10:56;;;;;;;6.67;4.90;;;;;;;;;;2095978;28;20214;-55
2021/03/13 00:11:57;;;;;;;7.33;5.10;;;;;;;;;;2094953;28;20179;-57
2021/03/13 00:12:57;;;;;;;10.33;5.40;;;;;;;;;;2095590;28;20224;-55
2021/03/13 00:13:57;;;;;;;11.70;5.53;;;;;;;;;;2094734;28;20187;-55
2021/03/13 00:14:58;;;;;;;6.43;4.93;;;;;;;;;;2098492;28;20719;-55
2021/03/13 00:15:58;;;;;;;5.90;4.57;;;;;;;;;;2096418;28;20183;-58
2021/03/13 00:16:59;;;;;;;8.13;5.20;;;;;;;;;;2093634;28;20183;-54
2021/03/13 00:17:59;;;;;;;6.23;4.80;;;;;;;;;;2094334;28;21849;-58
2021/03/13 00:19:00;;;;;;;6.67;4.60;;;;;;;;;;2094038;28;20176;-57
2021/03/13 00:20:00;;;;;;;7.83;4.80;;;;;;;;;;2094631;28;20269;-55
2021/03/13 00:21:00;;;;;;;6.67;5.13;;;;;;;;;;2093735;28;20171;-56
2021/03/13 00:22:01;;;;;;;7.60;4.67;;;;;;;;;;2094579;28;20179;-58
2021/03/13 00:23:01;;;;;;;8.87;5.37;;;;;;;;;;2094054;28;20241;-54
2021/03/13 00:24:01;;;;;;;7.93;4.97;;;;;;;;;;2094086;28;20198;-55
2021/03/13 00:25:02;;;;;;;7.23;5.07;;;;;;;;;;2095189;28;20721;-54
2021/03/13 00:26:03;;;;;;;8.70;4.93;;;;;;;;;;2094690;28;20288;-54
2021/03/13 00:27:03;;;;;;;8.40;5.23;;;;;;;;;;2094148;28;20178;-55
2021/03/13 00:28:04;;;;;;;5.10;4.70;;;;;;;;;;2093096;28;20179;-58
2021/03/13 00:29:04;;;;;;;8.00;5.40;;;;;;;;;;2093978;28;20175;-58
2021/03/13 00:30:05;;;;;;;10.30;4.83;;;;;;;;;;2094863;28;20163;-55
2021/03/13 00:31:05;;;;;;;7.23;5.43;;;;;;;;;;2096564;28;20167;-58
2021/03/13 00:32:06;;;;;;;8.30;5.53;;;;;;;;;;2095418;28;20171;-57
2021/03/13 00:33:07;;;;;;;7.93;5.40;;;;;;;;;;2094348;28;20174;-58
2021/03/13 00:34:07;;;;;;;8.23;5.57;;;;;;;;;;2096658;28;20193;-58
2021/03/13 00:35:08;;;;;;;12.37;5.47;;;;;;;;;;2093706;28;20209;-57
2021/03/13 00:36:08;;;;;;;8.07;5.53;;;;;;;;;;2096548;28;20178;-57
2021/03/13 00:37:09;;;;;;;7.93;4.93;;;;;;;;;;2095759;28;20187;-59
2021/03/13 00:38:09;;;;;;;10.47;5.13;;;;;;;;;;2094191;28;20167;-59
2021/03/13 00:39:10;;;;;;;8.77;4.90;;;;;;;;;;2096482;28;20270;-59
2021/03/13 00:40:11;;;;;;;7.50;4.97;;;;;;;;;;2092722;28;20275;-57
2021/03/13 00:41:12;;;;;;;7.60;5.03;;;;;;;;;;2093652;28;20183;-58
2021/03/13 00:42:12;;;;;;;10.47;5.27;;;;;;;;;;2093593;28;20676;-57
2021/03/13 00:43:13;;;;;;;7.83;5.00;;;;;;;;;;2096406;28;20167;-56
2021/03/13 00:44:14;;;;;;;9.77;5.43;;;;;;;;;;2094303;28;20206;-58
2021/03/13 00:45:16;;;;;;;5.93;4.97;;;;;;;;;;2100421;28;20690;-57
2021/03/13 00:46:16;;;;;;;10.73;5.83;;;;;;;;;;2093319;28;20772;-55
2021/03/13 00:47:17;;;;;;;5.20;4.70;;;;;;;;;;2086353;28;20221;-54
2021/03/13 00:48:17;;;;;;;10.70;5.40;;;;;;;;;;2095429;28;20182;-55
2021/03/13 00:49:18;;;;;;;9.03;5.23;;;;;;;;;;2085687;28;20180;-53
2021/03/13 00:50:20;;;;;;;6.70;5.63;;;;;;;;;;2097565;28;20163;-54
2021/03/13 00:51:21;;;;;;;7.80;5.73;;;;;;;;;;2095047;28;20175;-54
2021/03/13 00:52:21;;;;;;;6.17;5.10;;;;;;;;;;2094103;28;20223;-57
2021/03/13 00:53:22;;;;;;;9.47;5.87;;;;;;;;;;2085404;28;20219;-54
2021/03/13 00:54:22;;;;;;;6.60;4.77;;;;;;;;;;2096554;28;20689;-55
2021/03/13 00:55:23;;;;;;;8.00;5.13;;;;;;;;;;2093210;28;20206;-55
2021/03/13 00:56:28;;;;;;;6.43;4.23;;;;;;;;;;2086850;28;20172;-56
2021/03/13 00:57:29;;;;;;;10.70;5.30;;;;;;;;;;2086182;28;20172;-57
2021/03/13 00:58:29;;;;;;;5.77;4.87;;;;;;;;;;2093308;28;20183;-57
2021/03/13 00:59:34;;;;;;;6.17;5.23;;;;;;;;;;2095150;28;20209;-56
2021/03/13 01:00:34;;;;;;;7.30;5.27;;;;;;;;;;2094042;28;20232;-56
2021/03/13 01:01:35;;;;;;;9.87;5.03;;;;;;;;;;2100676;28;20591;-57
2021/03/13 01:02:35;;;;;;;5.70;5.00;;;;;;;;;;2095399;28;20570;-57
2021/03/13 01:03:36;;;;;;;7.90;5.97;;;;;;;;;;2093602;28;20234;-54
2021/03/13 01:04:39;;;;;;;8.30;5.33;;;;;;;;;;2093624;28;20171;-57
2021/03/13 01:05:40;;;;;;;6.40;5.80;;;;;;;;;;2095140;28;20202;-55
2021/03/13 01:06:40;;;;;;;6.10;5.50;;;;;;;;;;2094236;28;20199;-55
2021/03/13 01:07:41;;;;;;;6.47;5.47;;;;;;;;;;2093341;28;20224;-58
2021/03/13 01:08:43;;;;;;;9.07;5.00;;;;;;;;;;2085736;28;20171;-57
2021/03/13 01:09:50;;;;;;;6.47;5.60;;;;;;;;;;2082439;28;20172;-59
2021/03/13 01:10:50;;;;;;;9.93;5.80;;;;;;;;;;2089123;28;20176;-58
2021/03/13 01:11:55;;;;;;;7.33;4.53;;;;;;;;;;2085494;28;20259;-58
2021/03/13 01:12:55;;;;;;;7.97;5.30;;;;;;;;;;2085991;28;20180;-56
2021/03/13 01:13:55;;;;;;;9.20;5.47;;;;;;;;;;2096116;28;20704;-58
2021/03/13 01:15:00;;;;;;;6.77;5.27;;;;;;;;;;2085220;28;20229;-55
2021/03/13 01:16:02;;;;;;;6.40;5.60;;;;;;;;;;2078022;28;20227;-56
2021/03/13 01:17:02;;;;;;;7.63;5.50;;;;;;;;;;2093069;28;20191;-58
2021/03/13 01:18:03;;;;;;;6.93;4.87;;;;;;;;;;2094302;28;20170;-57
2021/03/13 01:19:04;;;;;;;6.33;4.83;;;;;;;;;;2092608;28;20738;-55
2021/03/13 01:20:06;;;;;;;6.90;5.20;;;;;;;;;;2091796;28;20180;-55
2021/03/13 01:21:06;;;;;;;7.50;5.13;;;;;;;;;;2092671;28;20638;-57
2021/03/13 01:22:14;;;;;;;8.97;5.27;;;;;;;;;;2095028;28;20163;-58
2021/03/13 01:23:14;;;;;;;6.97;5.77;;;;;;;;;;2083684;28;20645;-58
2021/03/13 01:24:15;;;;;;;7.43;5.33;;;;;;;;;;2083614;28;20203;-54
2021/03/13 01:25:17;;;;;;;7.97;5.53;;;;;;;;;;2086783;28;20176;-64
2021/03/13 01:26:18;;;;;;;10.03;5.33;;;;;;;;;;2078185;28;20720;-58
2021/03/13 01:27:20;;;;;;;9.27;5.63;;;;;;;;;;2084831;28;20178;-55
2021/03/13 01:28:20;;;;;;;9.97;5.60;;;;;;;;;;2093853;28;20624;-56
2021/03/13 01:29:20;;;;;;;9.07;4.93;;;;;;;;;;2097188;28;20232;-57
2021/03/13 01:30:28;;;;;;;10.10;5.90;;;;;;;;;;2093761;28;20170;-56
2021/03/13 01:31:30;;;;;;;9.07;5.50;;;;;;;;;;2083944;28;20163;-55
2021/03/13 01:32:30;;;;;;;6.00;4.83;;;;;;;;;;2095226;28;20175;-56
2021/03/13 01:33:31;;;;;;;7.83;5.43;;;;;;;;;;2086987;28;20714;-56
2021/03/13 01:34:33;;;;;;;9.67;4.70;;;;;;;;;;2084974;28;20176;-57
2021/03/13 01:35:44;;;;;;;10.20;5.27;;;;;;;;;;2085522;28;20171;-57
2021/03/13 01:36:44;;;;;;;6.17;4.93;;;;;;;;;;2086232;28;20616;-58
2021/03/13 01:37:44;;;;;;;10.77;5.70;;;;;;;;;;2095429;28;20195;-58
2021/03/13 01:38:45;;;;;;;9.73;5.60;;;;;;;;;;2094857;28;20175;-57
2021/03/13 01:39:46;;;;;;;6.20;4.97;;;;;;;;;;2095315;28;20664;-58
2021/03/13 01:40:52;;;;;;;9.17;5.53;;;;;;;;;;2098040;28;20190;-57
2021/03/13 01:41:53;;;;;;;6.80;5.17;;;;;;;;;;2094875;28;20167;-54
2021/03/13 01:42:54;;;;;;;8.80;5.73;;;;;;;;;;2087935;28;20176;-57
2021/03/13 01:44:01;;;;;;;6.53;5.07;;;;;;;;;;2084686;28;20211;-58
2021/03/13 01:45:07;;;;;;;10.63;5.23;;;;;;;;;;2095252;28;20190;-57
2021/03/13 01:46:07;;;;;;;12.00;5.53;;;;;;;;;;2094332;28;20199;-58
2021/03/13 01:47:22;;;;;;;6.70;6.00;;;;;;;;;;2093515;28;20171;-58
2021/03/13 01:48:29;;;;;;;5.70;5.20;;;;;;;;;;2092178;28;20202;-56
2021/03/13 01:49:31;;;;;;;9.80;5.40;;;;;;;;;;2094039;28;20592;-58
2021/03/13 01:50:32;;;;;;;8.33;5.43;;;;;;;;;;2085845;28;20201;-56
2021/03/13 01:51:32;;;;;;;6.90;5.20;;;;;;;;;;2077629;28;20176;-58
2021/03/13 01:52:39;;;;;;;11.07;5.40;;;;;;;;;;2086920;28;20171;-58
2021/03/13 01:53:40;;;;;;;9.93;5.23;;;;;;;;;;2093891;28;20333;-56
2021/03/13 01:54:40;;;;;;;8.07;5.40;;;;;;;;;;2093932;28;20258;-57
2021/03/13 01:55:41;;;;;;;9.47;5.70;;;;;;;;;;2092610;28;20186;-57
2021/03/13 01:56:43;;;;;;;8.37;5.60;;;;;;;;;;2085719;28;20187;-56
2021/03/13 01:57:43;;;;;;;11.93;6.00;;;;;;;;;;2084080;28;20668;-57
2021/03/13 01:58:44;;;;;;;9.17;5.57;;;;;;;;;;2086727;28;20657;-59
2021/03/13 01:59:48;;;;;;;9.03;5.37;;;;;;;;;;2086810;28;20370;-57
2021/03/13 02:00:49;;;;;;;7.53;5.63;;;;;;;;;;2092503;28;20269;-58
2021/03/13 02:01:51;;;;;;;9.47;5.93;;;;;;;;;;2093868;28;20202;-59
2021/03/13 02:02:54;;;;;;;10.07;5.70;;;;;;;;;;2086729;28;20177;-57
2021/03/13 02:03:58;;;;;;;6.87;5.60;;;;;;;;;;2084924;28;20195;-57
2021/03/13 02:04:59;;;;;;;7.50;5.53;;;;;;;;;;2093863;28;20183;-58
2021/03/13 02:06:00;;;;;;;8.70;6.13;;;;;;;;;;2093177;28;20529;-57
2021/03/13 02:07:00;;;;;;;9.23;5.87;;;;;;;;;;2093903;28;20198;-55
2021/03/13 02:08:05;;;;;;;11.07;5.77;;;;;;;;;;2094282;28;20252;-57
2021/03/13 02:09:19;;;;;;;7.50;5.17;;;;;;;;;;2092472;28;20183;-58
2021/03/13 02:10:24;;;;;;;9.33;5.07;;;;;;;;;;2102121;28;20195;-59
2021/03/13 02:11:40;;;;;;;5.97;4.63;;;;;;;;;;2100389;28;20206;-55
2021/03/13 02:12:46;;;;;;;9.57;6.07;;;;;;;;;;2095995;28;20202;-59
2021/03/13 02:13:54;;;;;;;14.10;5.73;;;;;;;;;;2091070;28;20207;-59
2021/03/13 02:15:04;;;;;;;8.87;5.43;;;;;;;;;;2092199;28;20164;-55
2021/03/13 02:16:17;;;;;;;12.17;5.97;;;;;;;;;;2084687;28;20207;-58
2021/03/13 02:17:21;;;;;;;6.80;5.40;;;;;;;;;;2085652;28;20174;-58
2021/03/13 02:18:32;;;;;;;9.33;6.03;;;;;;;;;;2087780;28;20680;-56
2021/03/13 02:19:35;;;;;;;9.30;5.90;;;;;;;;;;2092770;28;20179;-58
2021/03/13 02:20:42;;;;;;;10.60;5.83;;;;;;;;;;2095952;28;20228;-59
2021/03/13 02:21:49;;;;;;;8.97;5.63;;;;;;;;;;2091474;28;20266;-58
2021/03/13 02:22:51;;;;;;;10.17;4.90;;;;;;;;;;2085187;28;20171;-58
2021/03/13 02:24:28;;;;;;;7.13;5.93;;;;;;;;;;2093331;28;20210;-57
2021/03/13 02:25:37;;;;;;;8.23;5.20;;;;;;;;;;2093067;28;20167;-57
2021/03/13 02:26:51;;;;;;;8.77;6.00;;;;;;;;;;2093261;28;20222;-58
2021/03/13 02:28:17;;;;;;;9.27;5.63;;;;;;;;;;2091517;28;20308;-58
2021/03/13 02:29:17;;;;;;;6.83;5.27;;;;;;;;;;2085725;28;20182;-56
2021/03/13 02:30:27;;;;;;;9.50;5.07;;;;;;;;;;2094520;28;20193;-57
2021/03/13 02:31:35;;;;;;;8.60;5.37;;;;;;;;;;2086283;28;20179;-58
2021/03/13 02:32:36;;;;;;;8.23;6.10;;;;;;;;;;2086794;28;20168;-55
2021/03/13 02:33:37;;;;;;;10.33;6.13;;;;;;;;;;2084896;28;20241;-55
2021/03/13 02:34:50;;;;;;;6.17;5.57;;;;;;;;;;2086110;28;20247;-57
2021/03/13 02:35:58;;;;;;;10.27;6.57;;;;;;;;;;2095684;28;20180;-54
2021/03/13 02:37:03;;;;;;;8.83;5.80;;;;;;;;;;2093327;28;20198;-57
2021/03/13 02:38:09;;;;;;;10.50;6.77;;;;;;;;;;2088441;28;20168;-55
2021/03/13 02:39:10;;;;;;;9.10;6.37;;;;;;;;;;2085719;28;20644;-59
2021/03/13 02:40:21;;;;;;;8.33;5.83;;;;;;;;;;2084616;28;20541;-58
2021/03/13 02:41:28;;;;;;;10.53;6.70;;;;;;;;;;2085136;28;20187;-59
2021/03/13 02:42:29;;;;;;;11.90;7.00;;;;;;;;;;2084525;28;20198;-58
2021/03/13 02:43:30;;;;;;;14.00;7.03;;;;;;;;;;2093436;28;20191;-57
2021/03/13 02:44:32;;;;;;;10.17;6.13;;;;;;;;;;2093885;28;20171;-56
2021/03/13 02:45:40;;;;;;;9.63;6.37;;;;;;;;;;2092517;28;20245;-57
2021/03/13 02:46:42;;;;;;;8.53;6.60;;;;;;;;;;2086092;28;20203;-58
2021/03/13 02:47:44;;;;;;;13.73;7.00;;;;;;;;;;2093455;28;20209;-58
2021/03/13 02:48:46;;;;;;;11.30;7.00;;;;;;;;;;2093654;28;20179;-58
2021/03/13 02:49:48;;;;;;;8.73;6.03;;;;;;;;;;2092603;28;20190;-58
2021/03/13 02:50:55;;;;;;;8.97;6.53;;;;;;;;;;2084819;28;20167;-58
2021/03/13 02:51:59;;;;;;;13.90;6.83;;;;;;;;;;2086228;28;20263;-55
2021/03/13 02:53:00;;;;;;;9.23;6.40;;;;;;;;;;2085349;28;20168;-59
2021/03/13 02:54:01;;;;;;;11.27;7.90;;;;;;;;;;2092256;28;20180;-58
2021/03/13 02:55:02;;;;;;;11.70;7.20;;;;;;;;;;2093011;28;20262;-58
2021/03/13 02:56:03;;;;;;;10.50;6.20;;;;;;;;;;2092815;28;20171;-55
2021/03/13 02:57:06;;;;;;;14.13;6.67;;;;;;;;;;2085393;28;20254;-58
2021/03/13 02:58:06;;;;;;;10.40;7.47;;;;;;;;;;2085068;28;20180;-55
2021/03/13 02:59:07;;;;;;;9.70;6.90;;;;;;;;;;2092142;28;20597;-58
2021/03/13 03:00:15;;;;;;;14.07;7.43;;;;;;;;;;2091132;28;20167;-56
2021/03/13 03:01:16;;;;;;;12.10;7.30;;;;;;;;;;2093384;28;20633;-56
2021/03/13 03:02:17;;;;;;;12.97;7.23;;;;;;;;;;2092760;28;20171;-56
2021/03/13 03:03:21;;;;;;;8.93;6.87;;;;;;;;;;2085160;28;20163;-55
2021/03/13 03:04:36;;;;;;;11.90;7.50;;;;;;;;;;2085912;28;20171;-55
2021/03/13 03:05:38;;;;;;;10.47;6.83;;;;;;;;;;2093565;28;20167;-57
2021/03/13 03:06:40;;;;;;;10.37;6.93;;;;;;;;;;2093153;28;20190;-55
2021/03/13 03:07:43;;;;;;;11.90;7.20;;;;;;;;;;2085778;28;20167;-57
2021/03/13 03:08:46;;;;;;;19.77;7.47;;;;;;;;;;2094594;28;20637;-54
2021/03/13 03:09:52;;;;;;;10.33;6.50;;;;;;;;;;2089360;28;20678;-60
2021/03/13 03:10:54;;;;;;;13.83;7.10;;;;;;;;;;2092171;28;20163;-57
2021/03/13 03:11:55;;;;;;;8.97;7.37;;;;;;;;;;2092846;28;20179;-55
2021/03/13 03:12:56;;;;;;;11.90;8.17;;;;;;;;;;2093964;28;20687;-57
2021/03/13 03:13:57;;;;;;;11.93;7.30;;;;;;;;;;2086658;28;20341;-55
2021/03/13 03:14:58;;;;;;;12.40;8.07;;;;;;;;;;2077337;28;20253;-56
2021/03/13 03:16:00;;;;;;;12.43;7.00;;;;;;;;;;2092744;28;20167;-56
2021/03/13 03:17:02;;;;;;;10.77;7.43;;;;;;;;;;2092764;28;20178;-58
2021/03/13 03:18:10;;;;;;;13.50;7.53;;;;;;;;;;2090393;28;20160;-56
2021/03/13 03:19:13;;;;;;;13.00;8.37;;;;;;;;;;2093973;28;20663;-57
2021/03/13 03:20:19;;;;;;;10.37;7.50;;;;;;;;;;2092379;28;20216;-58
2021/03/13 03:21:20;;;;;;;12.57;7.67;;;;;;;;;;2093807;28;20212;-56
2021/03/13 03:22:22;;;;;;;11.48;7.75;;;;;;;;;;2084651;28;20306;-56
2021/03/13 03:23:29;;;;;;;12.03;7.30;;;;;;;;;;2086096;28;20172;-59
2021/03/13 03:24:29;;;;;;;15.47;8.60;;;;;;;;;;2088313;28;20184;-56
2021/03/13 03:25:33;;;;;;;10.63;7.23;;;;;;;;;;2086595;28;20167;-62
2021/03/13 03:26:34;;;;;;;15.77;7.83;;;;;;;;;;2092307;28;20568;-55
2021/03/13 03:27:49;;;;;;;9.97;8.03;;;;;;;;;;2087120;28;20184;-58
2021/03/13 03:28:50;;;;;;;8.40;7.50;;;;;;;;;;2088414;28;20171;-57
2021/03/13 03:29:54;;;;;;;14.20;8.37;;;;;;;;;;2082213;28;20175;-58
2021/03/13 03:30:58;;;;;;;9.73;7.80;;;;;;;;;;2088205;28;20164;-58
2021/03/13 03:32:03;;;;;;;10.00;7.50;;;;;;;;;;2086979;28;20671;-58
2021/03/13 03:33:03;;;;;;;9.90;8.13;;;;;;;;;;2085139;28;20176;-58
2021/03/13 03:34:06;;;;;;;10.37;7.80;;;;;;;;;;2085530;28;20214;-58
2021/03/13 03:35:07;;;;;;;11.77;8.53;;;;;;;;;;2094110;28;20168;-59
2021/03/13 03:36:09;;;;;;;10.13;7.70;;;;;;;;;;2091752;28;20163;-57
2021/03/13 03:37:10;;;;;;;11.50;8.30;;;;;;;;;;2092021;28;20168;-58
2021/03/13 03:38:12;;;;;;;13.33;8.60;;;;;;;;;;2086087;28;20632;-57
2021/03/13 03:39:13;;;;;;;13.40;9.00;;;;;;;;;;2084832;28;20194;-58
2021/03/13 03:40:15;;;;;;;11.90;8.87;;;;;;;;;;2084945;28;20651;-58
2021/03/13 03:41:16;;;;;;;10.40;9.33;;;;;;;;;;2086014;28;20243;-59
2021/03/13 03:42:18;;;;;;;10.10;9.00;;;;;;;;;;2084416;28;20175;-59
2021/03/13 03:43:23;;;;;;;12.17;9.40;;;;;;;;;;2083723;28;20175;-57
2021/03/13 03:44:26;;;;;;;13.90;9.33;;;;;;;;;;2085822;28;20207;-58
2021/03/13 03:45:35;;;;;;;14.60;9.67;;;;;;;;;;2087006;28;20167;-58
2021/03/13 03:46:36;;;;;;;10.93;9.00;;;;;;;;;;2085947;28;20203;-57
2021/03/13 03:47:37;;;;;;;13.23;9.67;;;;;;;;;;2086882;28;20171;-59
2021/03/13 03:48:41;;;;;;;10.37;8.80;;;;;;;;;;2087138;28;20160;-58
2021/03/13 03:49:49;;;;;;;9.30;8.50;;;;;;;;;;2096840;28;20266;-57
2021/03/13 03:51:01;;;;;;;10.07;9.00;;;;;;;;;;2100866;28;20174;-59
2021/03/13 03:52:11;;;;;;;10.30;8.93;;;;;;;;;;2093698;28;20179;-57
2021/03/13 03:53:14;;;;;;;10.67;9.57;;;;;;;;;;2086116;28;20192;-57
2021/03/13 03:54:14;;;;;;;11.43;8.50;;;;;;;;;;2092940;28;20197;-55
2021/03/13 03:55:16;;;;;;;12.77;9.30;;;;;;;;;;2094053;28;20266;-57
2021/03/13 03:56:20;;;;;;;9.67;8.67;;;;;;;;;;2093018;28;20286;-57
2021/03/13 03:57:21;;;;;;;11.90;9.03;;;;;;;;;;2094472;28;20182;-55
2021/03/13 03:58:24;;;;;;;9.93;7.97;;;;;;;;;;2092742;28;20675;-58
2021/03/13 03:59:24;;;;;;;10.03;8.50;;;;;;;;;;2092760;28;20676;-57
2021/03/13 04:00:25;;;;;;;10.20;9.17;;;;;;;;;;2102934;28;20259;-57
2021/03/13 04:01:26;;;;;;;12.27;9.00;;;;;;;;;;2093392;28;20616;-57
2021/03/13 04:02:27;;;;;;;9.80;8.70;;;;;;;;;;2093264;28;20178;-57
2021/03/13 04:03:28;;;;;;;8.83;7.97;;;;;;;;;;2095295;28;20166;-58
2021/03/13 04:04:29;;;;;;;12.37;8.53;;;;;;;;;;2095208;28;20614;-57
2021/03/13 04:05:29;;;;;;;9.30;7.97;;;;;;;;;;2093911;28;20206;-57
2021/03/13 04:06:31;;;;;;;10.70;8.00;;;;;;;;;;2092792;28;20191;-54
2021/03/13 04:07:33;;;;;;;10.00;7.60;;;;;;;;;;2092474;28;20246;-56
2021/03/13 04:08:34;;;;;;;9.97;8.07;;;;;;;;;;2094287;28;20255;-58
2021/03/13 04:09:35;;;;;;;8.80;7.83;;;;;;;;;;2092229;28;20703;-53
2021/03/13 04:10:36;;;;;;;10.37;7.43;;;;;;;;;;2094554;28;20170;-54
2021/03/13 04:11:36;;;;;;;8.97;8.00;;;;;;;;;;2092072;28;20233;-57
2021/03/13 04:12:39;;;;;;;8.57;7.07;;;;;;;;;;2094324;28;20175;-57
2021/03/13 04:13:40;;;;;;;12.67;8.13;;;;;;;;;;2092128;28;20276;-57
2021/03/13 04:14:40;;;;;;;8.93;6.77;;;;;;;;;;2105723;22;20163;-60
2021/03/13 04:15:42;;;;;;;8.87;6.73;;;;;;;;;;2075807;28;20294;-59
2021/03/13 04:16:42;;;;;;;8.13;7.33;;;;;;;;;;2083876;28;20180;-60
2021/03/13 04:17:43;;;;;;;8.70;7.77;;;;;;;;;;2079983;28;20176;-60
2021/03/13 04:18:43;;;;;;;8.60;7.33;;;;;;;;;;2061494;28;20197;-59
2021/03/13 04:19:44;;;;;;;9.00;7.20;;;;;;;;;;2068732;28;20178;-62
2021/03/13 04:20:46;;;;;;;7.53;6.83;;;;;;;;;;2085608;28;20575;-61
2021/03/13 04:21:47;;;;;;;7.73;7.03;;;;;;;;;;2086343;28;20223;-56
2021/03/13 04:22:48;;;;;;;9.00;7.17;;;;;;;;;;2085671;28;20191;-56
2021/03/13 04:23:48;;;;;;;6.93;6.43;;;;;;;;;;2081071;28;20206;-59
2021/03/13 04:24:49;;;;;;;7.63;6.63;;;;;;;;;;2074440;28;20173;-59
2021/03/13 04:25:50;;;;;;;7.47;6.87;;;;;;;;;;2076809;28;20587;-60
2021/03/13 04:26:52;;;;;;;8.30;7.50;;;;;;;;;;2086312;28;20557;-58
2021/03/13 04:27:52;;;;;;;8.20;7.47;;;;;;;;;;2084888;28;20213;-60
2021/03/13 04:28:53;;;;;;;8.33;7.50;;;;;;;;;;2084565;28;20636;-58
2021/03/13 04:29:53;;;;;;;8.63;7.20;;;;;;;;;;2085732;28;20182;-60
2021/03/13 04:30:53;;;;;;;8.07;7.30;;;;;;;;;;2084497;28;20255;-58
2021/03/13 04:31:54;;;;;;;8.83;7.93;;;;;;;;;;2073906;28;20223;-60
2021/03/13 04:32:56;;;;;;;7.87;7.23;;;;;;;;;;2075670;28;20179;-60
2021/03/13 04:33:57;;;;;;;8.40;7.53;;;;;;;;;;2086183;28;20172;-55
2021/03/13 04:34:57;;;;;;;9.40;8.10;;;;;;;;;;2086436;28;20218;-60
2021/03/13 04:35:58;;;;;;;8.67;7.87;;;;;;;;;;2086228;28;20169;-61
2021/03/13 04:37:00;;;;;;;8.47;7.57;;;;;;;;;;2083460;28;20514;-60
2021/03/13 04:38:00;;;;;;;7.93;7.33;;;;;;;;;;2066220;28;20165;-57
2021/03/13 04:39:02;;;;;;;8.33;7.63;;;;;;;;;;2068724;28;20646;-59
2021/03/13 04:40:03;;;;;;;9.97;8.00;;;;;;;;;;2075940;28;20183;-58
2021/03/13 04:41:04;;;;;;;10.40;8.93;;;;;;;;;;2084151;28;20540;-56
2021/03/13 04:42:05;;;;;;;9.53;8.53;;;;;;;;;;2085551;28;20840;-55
2021/03/13 04:43:06;;;;;;;8.90;8.10;;;;;;;;;;2084089;28;20566;-59
2021/03/13 04:44:06;;;;;;;9.13;8.23;;;;;;;;;;2086189;28;20264;-60
2021/03/13 04:45:10;;;;;;;9.20;8.37;;;;;;;;;;2084265;28;20210;-59
2021/03/13 04:46:11;;;;;;;9.87;8.37;;;;;;;;;;2082918;28;20176;-60
2021/03/13 04:47:11;;;;;;;9.83;8.80;;;;;;;;;;2085562;28;20171;-60
2021/03/13 04:48:12;;;;;;;9.97;9.07;;;;;;;;;;2084846;28;20176;-61
2021/03/13 04:49:12;;;;;;;9.00;8.20;;;;;;;;;;2084017;28;20178;-63
2021/03/13 04:50:14;;;;;;;9.90;8.97;;;;;;;;;;2086057;28;20656;-62
2021/03/13 04:51:15;;;;;;;9.53;8.63;;;;;;;;;;2086160;28;20176;-61
2021/03/13 04:52:15;;;;;;;11.07;8.67;;;;;;;;;;2079280;28;20188;-62
2021/03/13 04:53:16;;;;;;;9.80;8.90;;;;;;;;;;2085967;28;20168;-59
2021/03/13 04:54:16;;;;;;;11.80;8.70;;;;;;;;;;2086369;28;20187;-59
2021/03/13 04:55:16;;;;;;;10.33;8.90;;;;;;;;;;2077779;28;20196;-60
2021/03/13 04:56:16;;;;;;;8.73;7.87;;;;;;;;;;2077073;28;20177;-61
2021/03/13 04:57:17;;;;;;;8.77;7.97;;;;;;;;;;2066983;28;20178;-60
2021/03/13 04:58:17;;;;;;;9.50;8.60;;;;;;;;;;2068826;28;20192;-60
2021/03/13 04:59:17;;;;;;;9.17;8.37;;;;;;;;;;2076283;28;20169;-59
2021/03/13 05:00:18;;;;;;;8.97;8.07;;;;;;;;;;2076184;28;20200;-60
2021/03/13 05:01:18;;;;;;;8.43;7.83;;;;;;;;;;2085941;28;20177;-60
2021/03/13 05:02:18;;;;;;;9.47;8.13;;;;;;;;;;2086422;28;20609;-58
2021/03/13 05:03:19;;;;;;;11.00;7.57;;;;;;;;;;2086441;28;20217;-59
2021/03/13 05:04:19;;;;;;;8.77;8.03;;;;;;;;;;2086450;28;20257;-59
2021/03/13 05:05:19;;;;;;;8.97;7.97;;;;;;;;;;2086637;28;20195;-57
2021/03/13 05:06:20;;;;;;;10.00;8.90;;;;;;;;;;2085702;28;20649;-59
2021/03/13 05:07:20;;;;;;;9.10;8.13;;;;;;;;;;2077182;28;20210;-57
2021/03/13 05:08:20;;;;;;;9.17;8.23;;;;;;;;;;2068047;28;20194;-58
2021/03/13 05:09:21;;;;;;;8.80;7.80;;;;;;;;;;2077806;28;20165;-58
2021/03/13 05:10:21;;;;;;;9.00;8.10;;;;;;;;;;2085327;28;20252;-59
2021/03/13 05:11:21;;;;;;;8.83;7.97;;;;;;;;;;2076738;28;20256;-54
2021/03/13 05:12:21;;;;;;;9.53;8.73;;;;;;;;;;2077104;28;20264;-58
2021/03/13 05:13:22;;;;;;;10.30;7.77;;;;;;;;;;2087642;28;20194;-60
2021/03/13 05:14:22;;;;;;;9.97;8.20;;;;;;;;;;2085779;28;20164;-59
2021/03/13 05:15:23;;;;;;;9.57;8.67;;;;;;;;;;2086884;28;20223;-60
2021/03/13 05:16:23;;;;;;;9.77;8.87;;;;;;;;;;2087054;28;20234;-60
2021/03/13 05:17:23;;;;;;;8.90;8.20;;;;;;;;;;2076141;28;20194;-60
2021/03/13 05:18:24;;;;;;;8.90;8.10;;;;;;;;;;2076765;28;20195;-59
2021/03/13 05:19:24;;;;;;;11.40;8.37;;;;;;;;;;2077692;28;20233;-60
2021/03/13 05:20:24;;;;;;;8.97;8.20;;;;;;;;;;2076679;28;20181;-60
2021/03/13 05:21:24;;;;;;;9.47;8.53;;;;;;;;;;2087161;28;20167;-57
2021/03/13 05:22:25;;;;;;;9.50;8.60;;;;;;;;;;2085460;28;20171;-61
2021/03/13 05:23:25;;;;;;;9.30;8.50;;;;;;;;;;2082746;28;20193;-60
2021/03/13 05:24:25;;;;;;;9.23;8.43;;;;;;;;;;2078722;28;20184;-60
2021/03/13 05:25:26;;;;;;;9.50;8.60;;;;;;;;;;2079630;28;20726;-60
2021/03/13 05:26:26;;;;;;;9.80;9.00;;;;;;;;;;2077067;28;20290;-60
2021/03/13 05:27:26;;;;;;;9.37;8.53;;;;;;;;;;2075383;28;20848;-62
2021/03/13 05:28:26;;;;;;;9.27;8.47;;;;;;;;;;2081581;28;20831;-59
2021/03/13 05:29:27;;;;;;;9.10;8.30;;;;;;;;;;2078669;28;20648;-60
2021/03/13 05:30:27;;;;;;;9.13;8.23;;;;;;;;;;2076100;28;20629;-59
2021/03/13 05:31:27;;;;;;;9.20;8.27;;;;;;;;;;2084182;28;20172;-59
2021/03/13 05:32:27;;;;;;;8.70;7.83;;;;;;;;;;2087311;28;20595;-60
2021/03/13 05:33:28;;;;;;;9.67;8.77;;;;;;;;;;2084845;28;20764;-60
2021/03/13 05:34:28;;;;;;;9.67;8.87;;;;;;;;;;2084881;28;20659;-57
2021/03/13 05:35:28;;;;;;;9.87;8.87;;;;;;;;;;2076073;28;20744;-59
2021/03/13 05:36:28;;;;;;;9.80;8.80;;;;;;;;;;2067143;28;20232;-59
2021/03/13 05:37:29;;;;;;;10.03;9.13;;;;;;;;;;2078543;28;20275;-62
2021/03/13 05:38:29;;;;;;;11.27;9.47;;;;;;;;;;2084401;28;20190;-58
2021/03/13 05:39:30;;;;;;;10.50;9.53;;;;;;;;;;2088311;28;20180;-61
2021/03/13 05:40:30;;;;;;;9.47;8.50;;;;;;;;;;2082602;28;20673;-61
2021/03/13 05:41:30;;;;;;;10.53;8.27;;;;;;;;;;2085492;28;20655;-61
2021/03/13 05:42:31;;;;;;;9.90;8.70;;;;;;;;;;2075908;28;20212;-58
2021/03/13 05:43:33;;;;;;;8.70;7.93;;;;;;;;;;2073375;28;20240;-61
2021/03/13 05:44:33;;;;;;;9.43;8.53;;;;;;;;;;2082130;28;20180;-59
2021/03/13 05:45:33;;;;;;;9.07;8.23;;;;;;;;;;2082071;28;20196;-61
2021/03/13 05:46:36;;;;;;;8.30;7.60;;;;;;;;;;2073076;28;20212;-60
2021/03/13 05:47:37;;;;;;;8.17;7.47;;;;;;;;;;2072275;28;20211;-61
2021/03/13 05:48:38;;;;;;;8.20;7.50;;;;;;;;;;2078679;28;20251;-60
2021/03/13 05:49:41;;;;;;;8.67;7.97;;;;;;;;;;2081402;28;20184;-61
2021/03/13 05:50:41;;;;;;;9.00;8.30;;;;;;;;;;2073068;28;20663;-62
2021/03/13 05:51:46;;;;;;;9.37;8.40;;;;;;;;;;2071962;28;20181;-60
2021/03/13 05:52:49;;;;;;;7.80;6.90;;;;;;;;;;2088609;28;20573;-61
2021/03/13 05:53:49;;;;;;;7.00;6.43;;;;;;;;;;2081539;28;20176;-61
2021/03/13 05:54:50;;;;;;;7.40;6.70;;;;;;;;;;2081367;28;20344;-62
2021/03/13 05:55:57;;;;;;;7.23;6.60;;;;;;;;;;2081417;28;20179;-60
2021/03/13 05:56:58;;;;;;;7.13;6.63;;;;;;;;;;2081976;28;20184;-60
2021/03/13 05:58:01;;;;;;;7.93;7.33;;;;;;;;;;2082050;28;20196;-59
2021/03/13 05:59:01;;;;;;;8.10;7.43;;;;;;;;;;2084356;28;20172;-60
2021/03/13 06:00:03;;;;;;;6.57;6.00;;;;;;;;;;2087033;28;20176;-60
2021/03/13 06:01:12;;;;;;;6.23;5.77;;;;;;;;;;2082903;28;20169;-59
2021/03/13 06:02:12;;;;;;;6.30;5.70;;;;;;;;;;2083344;28;20188;-59
2021/03/13 06:03:12;;;;;;;6.07;5.57;;;;;;;;;;2086310;28;20168;-60
2021/03/13 06:04:13;;;;;;;6.47;5.97;;;;;;;;;;2085753;28;20169;-60
2021/03/13 06:05:13;;;;;;;6.37;5.57;;;;;;;;;;2076096;28;20268;-58
2021/03/13 06:06:15;;;;;;;6.30;5.70;;;;;;;;;;2075218;28;20951;-59
2021/03/13 06:07:18;;;;;;;6.27;5.70;;;;;;;;;;2086638;28;20210;-58
2021/03/13 06:08:19;;;;;;;5.97;5.47;;;;;;;;;;2084178;28;20632;-60
2021/03/13 06:09:19;;;;;;;6.07;5.67;;;;;;;;;;2076846;28;20172;-61
2021/03/13 06:10:19;;;;;;;6.33;5.73;;;;;;;;;;2077131;28;20571;-61
2021/03/13 06:11:21;;;;;;;6.40;5.90;;;;;;;;;;2084304;28;20177;-57